Terminal Aerodrome Forecast
Issued by NWS

Home | Current Version | Previous Version | Text Only | Print | Product List | Glossary On
Versions: 1 2 3 4 5 6 7 8 9 10 11 12 13 14 15 16 17 18 19 20
000
FTUS43 KICT 282126 AAA
TAFHUT
TAF AMD
KHUT 282126Z 2821/0118 15006KT P6SM OVC015
     FM011000 VRB05KT 3SM -SN BR BKN007
      TEMPO 0111/0114 1/2SM SN
     FM011500 36005KT P6SM BKN020=

USA.gov is the U.S. government's official web portal to all federal, state and local government web resources and services.